Terminal Aerodrome Forecast
Issued by NWS Twin Cities, MN

Home | Current Version | Previous Version | Graphics & Text | Print | Product List | Glossary On
Versions: 1 2 3 4 5 6 7 8 9 10 11 12 13 14 15 16 17 18 19 20 21 22 23 24 25
788
FTUS43 KMPX 221128
TAFMSP
TAF
KMSP 221128Z 2212/2318 03016G22KT 6SM BR VCSH OVC012
     FM221400 02016G25KT 3SM -SN BR OVC009
     FM221600 02018G26KT 1SM -SN BR OVC008
     FM221700 03020G28KT 1/2SM SN OVC005
      TEMPO 2219/2223 1/4SM +SN VV002
     FM230000 36017G25KT 1SM -SN BR OVC010
     FM230200 36016G24KT 3SM -SN BR OVC015
     FM230400 35016G24KT 6SM -SN BLSN BKN025
     FM230600 35013KT P6SM BKN040
     FM231000 34009KT P6SM SCT035=

USA.gov is the U.S. government's official web portal to all federal, state and local government web resources and services.